Terminal Aerodrome Forecast
Issued by NWS

Home | Current Version | Previous Version | Text Only | Print | Product List | Glossary On
Versions: 1 2 3 4 5 6 7 8 9 10 11 12 13 14
157
FTUS41 KCAR 231120
TAFBHB
TAF
KBHB 231120Z 2312/2412 25004KT P6SM SCT050 BKN100
     FM231800 28006KT 6SM SHRA VCTS SCT025CB OVC045CB
     FM240000 30007KT P6SM VCSH BKN040
     FM240300 32005KT P6SM SCT050 BKN200=

USA.gov is the U.S. government's official web portal to all federal, state and local government web resources and services.